Latest Weather Observations for Kurnell

IDN60901

Issued at 11:45 pm EST Wednesday 23 July 2014 (issued every 10 minutes, with the page automatically refreshed every 10 minutes)

About weather observations | Map of Sydney area stations | Latest observations for Sydney area | Other Formats
Station Details ID: 066043 Name: KURNELL AWS Lat: -34.00 Lon: 151.21 Height: 4.0 m
Data from the previous 72 hours. | See also: Recent months for locations in New South Wales
Date/Time
EST
Tmp

°C
App
Tmp
°C
Dew
Point
°C
Rel
Hum
%
Delta-T

°C
Wind Press
QNH
hPa
Press
MSL
hPa
Rain
since
9 am
mm
Dir
 
Spd
km/h
Gust
km/h
Spd
kts
Gust
kts
23/11:30pm - - - - - W 7 9 4 5 - - -
23/11:00pm - - - - - WSW 7 9 4 5 - - -
23/10:30pm - - - - - NW 11 13 6 7 - - -
23/10:00pm - - - - - N 9 13 5 7 - - -
23/09:30pm - - - - - NNE 11 13 6 7 - - -
23/09:00pm - - - - - NE 13 15 7 8 - - -
23/08:30pm - - - - - NE 13 17 7 9 - - -
23/08:00pm - - - - - E 13 19 7 10 - - -
23/07:30pm - - - - - E 17 19 9 10 - - -
23/07:00pm - - - - - E 15 20 8 11 - - -
23/06:30pm - - - - - E 15 17 8 9 - - -
23/06:00pm - - - - - E 11 15 6 8 - - -
23/05:30pm - - - - - E 13 17 7 9 - - -
23/05:00pm - - - - - E 13 15 7 8 - - -
23/04:30pm - - - - - E 11 17 6 9 - - -
23/04:00pm - - - - - E 13 17 7 9 - - -
23/03:30pm - - - - - ESE 13 17 7 9 - - -
23/03:00pm - - - - - E 15 17 8 9 - - -
23/02:30pm - - - - - E 13 19 7 10 - - -
23/02:00pm - - - - - ESE 13 19 7 10 - - -
23/01:30pm - - - - - SE 11 15 6 8 - - -
23/01:00pm - - - - - NNE 7 11 4 6 - - -
23/12:30pm - - - - - ENE 6 11 3 6 - - -
23/12:00pm - - - - - N 7 9 4 5 - - -
23/11:30am - - - - - NW 9 11 5 6 - - -
23/11:00am - - - - - NW 7 11 4 6 - - -
23/10:30am - - - - - WNW 9 11 5 6 - - -
23/10:00am - - - - - NNW 11 13 6 7 - - -
23/09:30am - - - - - NNW 9 11 5 6 - - -
23/09:00am - - - - - NW 11 13 6 7 - - -
23/08:30am - - - - - NW 11 15 6 8 - - -
23/08:00am - - - - - NW 13 15 7 8 - - -
23/07:30am - - - - - WNW 11 13 6 7 - - -
23/07:00am - - - - - NW 11 13 6 7 - - -
23/06:30am - - - - - NW 11 15 6 8 - - -
23/06:00am - - - - - NW 9 15 5 8 - - -
23/05:30am - - - - - NNW 11 11 6 6 - - -
23/05:00am - - - - - WNW 13 15 7 8 - - -
23/04:30am - - - - - NW 13 15 7 8 - - -
23/04:00am - - - - - NW 11 15 6 8 - - -
23/03:30am - - - - - NW 11 13 6 7 - - -
23/03:00am - - - - - WNW 11 15 6 8 - - -
23/02:30am - - - - - SSW 13 15 7 8 - - -
23/02:00am - - - - - SW 9 11 5 6 - - -
23/01:30am - - - - - SW 13 17 7 9 - - -
23/01:00am - - - - - SW 11 13 6 7 - - -
23/12:30am - - - - - WSW 6 7 3 4 - - -
23/12:00am - - - - - SW 13 17 7 9 - - -
 
Date/Time
EST
Tmp

°C
App
Tmp
°C
Dew
Point
°C
Rel
Hum
%
Delta-T

°C
Wind Press
QNH
hPa
Press
MSL
hPa
Rain
since
9 am
mm
Dir
 
Spd
km/h
Gust
km/h
Spd
kts
Gust
kts
22/11:30pm - - - - - SSW 6 9 3 5 - - -
22/11:00pm - - - - - W 11 13 6 7 - - -
22/10:30pm - - - - - WSW 9 11 5 6 - - -
22/10:00pm - - - - - SE 7 9 4 5 - - -
22/09:30pm - - - - - SSE 9 13 5 7 - - -
22/09:00pm - - - - - SE 11 13 6 7 - - -
22/08:30pm - - - - - SE 9 11 5 6 - - -
22/08:00pm - - - - - SE 9 11 5 6 - - -
22/07:30pm - - - - - SE 11 13 6 7 - - -
22/07:00pm - - - - - SE 9 11 5 6 - - -
22/06:30pm - - - - - SSE 11 13 6 7 - - -
22/06:00pm - - - - - SE 11 13 6 7 - - -
22/05:30pm - - - - - SE 11 13 6 7 - - -
22/05:00pm - - - - - SSE 11 13 6 7 - - -
22/04:30pm - - - - - SE 11 17 6 9 - - -
22/04:00pm - - - - - SSE 13 17 7 9 - - -
22/03:30pm - - - - - SE 15 19 8 10 - - -
22/03:00pm - - - - - SSE 15 19 8 10 - - -
22/02:30pm - - - - - SSE 15 20 8 11 - - -
22/02:00pm - - - - - SSE 15 22 8 12 - - -
22/01:30pm - - - - - S 17 24 9 13 - - -
22/01:00pm - - - - - S 15 20 8 11 - - -
22/12:30pm - - - - - SSW 17 22 9 12 - - -
22/12:00pm - - - - - S 11 17 6 9 - - -
22/11:30am - - - - - N 7 9 4 5 - - -
22/11:00am - - - - - NNW 9 11 5 6 - - -
22/10:30am - - - - - WNW 13 13 7 7 - - -
22/10:00am - - - - - NW 9 11 5 6 - - -
22/09:30am - - - - - NNW 9 11 5 6 - - -
22/09:00am - - - - - WNW 9 13 5 7 - - -
22/08:30am - - - - - NNW 15 19 8 10 - - -
22/08:00am - - - - - NW 13 17 7 9 - - -
22/07:30am - - - - - WNW 9 15 5 8 - - -
22/07:00am - - - - - NW 13 15 7 8 - - -
22/06:30am - - - - - NNW 15 17 8 9 - - -
22/06:00am - - - - - NNW 15 17 8 9 - - -
22/05:30am - - - - - NNW 9 11 5 6 - - -
22/05:00am - - - - - NW 13 15 7 8 - - -
22/04:30am - - - - - NNW 11 15 6 8 - - -
22/04:00am - - - - - SW 6 7 3 4 - - -
22/03:30am - - - - - WNW 9 11 5 6 - - -
22/03:00am - - - - - W 9 13 5 7 - - -
22/02:30am - - - - - NW 11 11 6 6 - - -
22/02:00am - - - - - WNW 9 11 5 6 - - -
22/01:30am - - - - - WNW 13 15 7 8 - - -
22/01:00am - - - - - WNW 13 15 7 8 - - -
22/12:30am - - - - - W 7 9 4 5 - - -
22/12:00am - - - - - CALM 0 0 0 0 - - -
 
Date/Time
EST
Tmp

°C
App
Tmp
°C
Dew
Point
°C
Rel
Hum
%
Delta-T

°C
Wind Press
QNH
hPa
Press
MSL
hPa
Rain
since
9 am
mm
Dir
 
Spd
km/h
Gust
km/h
Spd
kts
Gust
kts
21/11:30pm - - - - - WNW 11 11 6 6 - - -
21/11:00pm - - - - - WNW 13 15 7 8 - - -
21/10:30pm - - - - - W 11 13 6 7 - - -
21/10:00pm - - - - - W 6 9 3 5 - - -
21/09:30pm - - - - - SE 9 11 5 6 - - -
21/09:00pm - - - - - ESE 9 11 5 6 - - -
21/08:30pm - - - - - SE 11 13 6 7 - - -
21/08:00pm - - - - - ESE 11 15 6 8 - - -
21/07:30pm - - - - - SSE 7 9 4 5 - - -
21/07:00pm - - - - - SSE 11 13 6 7 - - -
21/06:30pm - - - - - S 9 15 5 8 - - -
21/06:00pm - - - - - S 9 13 5 7 - - -
21/05:30pm - - - - - S 13 17 7 9 - - -
21/05:00pm - - - - - S 17 20 9 11 - - -
21/04:30pm - - - - - S 13 19 7 10 - - -
21/04:00pm - - - - - S 19 26 10 14 - - -
21/03:30pm - - - - - SSE 17 28 9 15 - - -
21/03:00pm - - - - - S 19 30 10 16 - - -
21/02:30pm - - - - - S 22 30 12 16 - - -
21/02:00pm - - - - - S 24 33 13 18 - - -
21/01:30pm - - - - - S 26 35 14 19 - - -
21/01:00pm - - - - - S 24 33 13 18 - - -
21/12:30pm - - - - - SSW 24 32 13 17 - - -
21/12:00pm - - - - - SW 22 28 12 15 - - -
21/11:30am - - - - - SW 19 26 10 14 - - -
21/11:00am - - - - - WNW 13 15 7 8 - - -
21/10:30am - - - - - WNW 15 17 8 9 - - -
21/10:00am - - - - - NW 11 13 6 7 - - -
21/09:30am - - - - - WNW 11 13 6 7 - - -
21/09:00am - - - - - NW 13 17 7 9 - - -
21/08:30am - - - - - NW 17 19 9 10 - - -
21/08:00am - - - - - NNW 13 17 7 9 - - -
21/07:30am - - - - - NW 9 13 5 7 - - -
21/07:00am - - - - - NW 11 13 6 7 - - -
21/06:30am - - - - - NW 11 13 6 7 - - -
21/06:00am - - - - - NW 11 15 6 8 - - -
21/05:30am - - - - - WNW 13 15 7 8 - - -
21/05:00am - - - - - NNW 13 17 7 9 - - -
21/04:30am - - - - - NNW 15 17 8 9 - - -
21/04:00am - - - - - NNW 15 17 8 9 - - -
21/03:30am - - - - - NW 13 15 7 8 - - -
21/03:00am - - - - - NW 15 19 8 10 - - -
21/02:30am - - - - - WNW 9 13 5 7 - - -
21/02:00am - - - - - NW 17 19 9 10 - - -
21/01:30am - - - - - W 13 15 7 8 - - -
21/01:00am - - - - - W 11 11 6 6 - - -
21/12:30am - - - - - WNW 13 15 7 8 - - -
21/12:00am - - - - - W 13 17 7 9 - - -

Latest Capital City Observations: Canberra | Sydney | Melbourne | Brisbane | Adelaide | Perth | Hobart | Darwin

Other Formats:

Comma delimited format used in spreadsheet applications
http://www.bom.gov.au/fwo/IDN60901/IDN60901.95756.axf

JavaScript Object Notation format (JSON) in row-major order
http://www.bom.gov.au/fwo/IDN60901/IDN60901.95756.json